sensor_id;sensor_type;location;lat;lon;timestamp;P1;durP1;ratioP1;P2;durP2;ratioP2
57339;SDS011;43174;50.930;18.170;2023-05-07T00:01:45;4.50;;;4.30;;
57339;SDS011;43174;50.930;18.170;2023-05-07T00:11:28;4.80;;;4.40;;
57339;SDS011;43174;50.930;18.170;2023-05-07T00:21:10;9.80;;;8.90;;
57339;SDS011;43174;50.930;18.170;2023-05-07T00:30:52;5.30;;;4.90;;
57339;SDS011;43174;50.930;18.170;2023-05-07T00:40:36;7.50;;;7.10;;
57339;SDS011;43174;50.930;18.170;2023-05-07T00:50:19;3.30;;;3.20;;
57339;SDS011;43174;50.930;18.170;2023-05-07T01:00:02;4.50;;;4.30;;
57339;SDS011;43174;50.930;18.170;2023-05-07T01:09:46;4.40;;;4.20;;
57339;SDS011;43174;50.930;18.170;2023-05-07T01:19:28;3.90;;;3.80;;
57339;SDS011;43174;50.930;18.170;2023-05-07T01:29:12;4.70;;;4.50;;
57339;SDS011;43174;50.930;18.170;2023-05-07T01:38:55;6.00;;;5.70;;
57339;SDS011;43174;50.930;18.170;2023-05-07T01:48:41;6.80;;;6.50;;
57339;SDS011;43174;50.930;18.170;2023-05-07T01:58:28;4.70;;;4.50;;
57339;SDS011;43174;50.930;18.170;2023-05-07T02:08:10;4.80;;;4.50;;
57339;SDS011;43174;50.930;18.170;2023-05-07T02:18:03;6.70;;;6.40;;
57339;SDS011;43174;50.930;18.170;2023-05-07T02:35:02;6.30;;;4.30;;
57339;SDS011;43174;50.930;18.170;2023-05-07T02:44:45;4.70;;;4.40;;
57339;SDS011;43174;50.930;18.170;2023-05-07T02:54:29;4.20;;;4.00;;
57339;SDS011;43174;50.930;18.170;2023-05-07T03:04:14;4.90;;;4.70;;
57339;SDS011;43174;50.930;18.170;2023-05-07T03:13:56;6.00;;;5.70;;
57339;SDS011;43174;50.930;18.170;2023-05-07T03:23:38;3.40;;;3.30;;
57339;SDS011;43174;50.930;18.170;2023-05-07T03:33:21;4.20;;;4.00;;
57339;SDS011;43174;50.930;18.170;2023-05-07T03:43:03;2.80;;;2.70;;
57339;SDS011;43174;50.930;18.170;2023-05-07T03:52:46;4.00;;;3.90;;
57339;SDS011;43174;50.930;18.170;2023-05-07T04:02:29;2.80;;;2.70;;
57339;SDS011;43174;50.930;18.170;2023-05-07T04:12:12;3.20;;;3.10;;
57339;SDS011;43174;50.930;18.170;2023-05-07T04:21:55;2.80;;;2.70;;
57339;SDS011;43174;50.930;18.170;2023-05-07T04:31:37;6.40;;;5.90;;
57339;SDS011;43174;50.930;18.170;2023-05-07T04:41:20;5.10;;;4.80;;
57339;SDS011;43174;50.930;18.170;2023-05-07T04:51:03;6.50;;;6.10;;
57339;SDS011;43174;50.930;18.170;2023-05-07T05:00:48;5.00;;;4.80;;
57339;SDS011;43174;50.930;18.170;2023-05-07T05:10:31;5.90;;;5.70;;
57339;SDS011;43174;50.930;18.170;2023-05-07T05:20:14;3.50;;;3.40;;
57339;SDS011;43174;50.930;18.170;2023-05-07T05:29:57;7.00;;;6.60;;
57339;SDS011;43174;50.930;18.170;2023-05-07T05:39:39;5.50;;;5.30;;
57339;SDS011;43174;50.930;18.170;2023-05-07T05:49:24;5.70;;;5.50;;
57339;SDS011;43174;50.930;18.170;2023-05-07T05:59:07;6.20;;;5.90;;
57339;SDS011;43174;50.930;18.170;2023-05-07T06:08:51;3.30;;;3.20;;
57339;SDS011;43174;50.930;18.170;2023-05-07T06:18:34;4.00;;;3.90;;
57339;SDS011;43174;50.930;18.170;2023-05-07T06:28:18;4.10;;;3.90;;
57339;SDS011;43174;50.930;18.170;2023-05-07T06:38:01;4.50;;;4.30;;
57339;SDS011;43174;50.930;18.170;2023-05-07T06:47:44;9.70;;;9.30;;
57339;SDS011;43174;50.930;18.170;2023-05-07T06:57:27;11.60;;;11.00;;
57339;SDS011;43174;50.930;18.170;2023-05-07T07:07:10;7.10;;;6.70;;
57339;SDS011;43174;50.930;18.170;2023-05-07T07:16:54;5.60;;;5.20;;
57339;SDS011;43174;50.930;18.170;2023-05-07T07:26:38;6.20;;;6.00;;
57339;SDS011;43174;50.930;18.170;2023-05-07T07:36:23;4.50;;;4.20;;
57339;SDS011;43174;50.930;18.170;2023-05-07T07:43:40;9.10;;;8.50;;
57339;SDS011;43174;50.930;18.170;2023-05-07T07:53:23;5.40;;;5.20;;
57339;SDS011;43174;50.930;18.170;2023-05-07T08:03:08;4.60;;;4.50;;
57339;SDS011;43174;50.930;18.170;2023-05-07T08:12:52;7.50;;;7.10;;
57339;SDS011;43174;50.930;18.170;2023-05-07T08:22:34;9.00;;;8.60;;
57339;SDS011;43174;50.930;18.170;2023-05-07T08:32:17;3.80;;;3.60;;
57339;SDS011;43174;50.930;18.170;2023-05-07T08:42:00;7.10;;;6.40;;
57339;SDS011;43174;50.930;18.170;2023-05-07T08:51:52;8.40;;;8.10;;
57339;SDS011;43174;50.930;18.170;2023-05-07T09:01:36;6.50;;;6.20;;
57339;SDS011;43174;50.930;18.170;2023-05-07T09:11:21;11.70;;;11.20;;
57339;SDS011;43174;50.930;18.170;2023-05-07T09:21:05;8.60;;;8.20;;
57339;SDS011;43174;50.930;18.170;2023-05-07T09:30:53;5.80;;;5.50;;
57339;SDS011;43174;50.930;18.170;2023-05-07T09:40:36;4.00;;;3.90;;
57339;SDS011;43174;50.930;18.170;2023-05-07T09:50:19;5.50;;;5.20;;
57339;SDS011;43174;50.930;18.170;2023-05-07T10:00:04;4.20;;;4.00;;
57339;SDS011;43174;50.930;18.170;2023-05-07T10:10:09;4.90;;;4.60;;
57339;SDS011;43174;50.930;18.170;2023-05-07T10:19:56;2.60;;;2.50;;
57339;SDS011;43174;50.930;18.170;2023-05-07T10:39:42;5.30;;;4.80;;
57339;SDS011;43174;50.930;18.170;2023-05-07T10:49:26;6.80;;;6.50;;
57339;SDS011;43174;50.930;18.170;2023-05-07T11:09:22;6.50;;;6.20;;
57339;SDS011;43174;50.930;18.170;2023-05-07T11:19:07;7.90;;;7.60;;
57339;SDS011;43174;50.930;18.170;2023-05-07T11:28:51;8.20;;;7.60;;
57339;SDS011;43174;50.930;18.170;2023-05-07T11:38:37;7.70;;;7.20;;
57339;SDS011;43174;50.930;18.170;2023-05-07T11:48:21;27.70;;;19.00;;
57339;SDS011;43174;50.930;18.170;2023-05-07T11:58:04;10.20;;;9.60;;
57339;SDS011;43174;50.930;18.170;2023-05-07T12:07:46;7.30;;;6.90;;
57339;SDS011;43174;50.930;18.170;2023-05-07T12:17:30;4.80;;;4.60;;
57339;SDS011;43174;50.930;18.170;2023-05-07T12:27:14;9.40;;;8.80;;
57339;SDS011;43174;50.930;18.170;2023-05-07T12:37:01;6.50;;;6.20;;
57339;SDS011;43174;50.930;18.170;2023-05-07T12:46:46;4.30;;;4.10;;
57339;SDS011;43174;50.930;18.170;2023-05-07T12:49:12;5.90;;;5.50;;
57339;SDS011;43174;50.930;18.170;2023-05-07T12:58:56;7.70;;;7.40;;
57339;SDS011;43174;50.930;18.170;2023-05-07T13:08:41;4.20;;;4.10;;
57339;SDS011;43174;50.930;18.170;2023-05-07T13:18:26;4.10;;;3.90;;
57339;SDS011;43174;50.930;18.170;2023-05-07T13:28:08;8.20;;;7.40;;
57339;SDS011;43174;50.930;18.170;2023-05-07T13:37:51;4.60;;;4.40;;
57339;SDS011;43174;50.930;18.170;2023-05-07T13:47:34;6.00;;;5.70;;
57339;SDS011;43174;50.930;18.170;2023-05-07T13:57:18;7.00;;;6.70;;
57339;SDS011;43174;50.930;18.170;2023-05-07T14:07:03;12.30;;;7.50;;
57339;SDS011;43174;50.930;18.170;2023-05-07T14:16:45;7.30;;;6.90;;
57339;SDS011;43174;50.930;18.170;2023-05-07T14:26:27;5.40;;;5.10;;
57339;SDS011;43174;50.930;18.170;2023-05-07T14:36:12;5.20;;;5.00;;
57339;SDS011;43174;50.930;18.170;2023-05-07T14:45:56;2.50;;;2.40;;
57339;SDS011;43174;50.930;18.170;2023-05-07T14:55:40;6.70;;;6.40;;
57339;SDS011;43174;50.930;18.170;2023-05-07T15:05:24;5.00;;;4.80;;
57339;SDS011;43174;50.930;18.170;2023-05-07T15:15:06;9.30;;;8.80;;
57339;SDS011;43174;50.930;18.170;2023-05-07T15:24:49;8.40;;;8.10;;
57339;SDS011;43174;50.930;18.170;2023-05-07T15:34:33;8.50;;;8.00;;
57339;SDS011;43174;50.930;18.170;2023-05-07T15:44:16;5.20;;;5.00;;
57339;SDS011;43174;50.930;18.170;2023-05-07T15:53:58;6.00;;;5.70;;
57339;SDS011;43174;50.930;18.170;2023-05-07T16:03:44;6.80;;;6.50;;
57339;SDS011;43174;50.930;18.170;2023-05-07T16:13:30;6.80;;;6.50;;
57339;SDS011;43174;50.930;18.170;2023-05-07T16:23:15;7.70;;;7.30;;
57339;SDS011;43174;50.930;18.170;2023-05-07T16:32:58;8.80;;;8.30;;
57339;SDS011;43174;50.930;18.170;2023-05-07T16:42:42;6.80;;;6.50;;
57339;SDS011;43174;50.930;18.170;2023-05-07T16:52:25;6.60;;;6.30;;
57339;SDS011;43174;50.930;18.170;2023-05-07T17:02:14;11.50;;;10.90;;
57339;SDS011;43174;50.930;18.170;2023-05-07T17:11:56;8.20;;;7.90;;
57339;SDS011;43174;50.930;18.170;2023-05-07T17:21:39;88.70;;;42.10;;
57339;SDS011;43174;50.930;18.170;2023-05-07T17:31:23;101.70;;;55.10;;
57339;SDS011;43174;50.930;18.170;2023-05-07T17:41:06;109.90;;;48.70;;
57339;SDS011;43174;50.930;18.170;2023-05-07T17:50:49;37.30;;;25.20;;
57339;SDS011;43174;50.930;18.170;2023-05-07T18:00:34;46.50;;;30.70;;
57339;SDS011;43174;50.930;18.170;2023-05-07T18:10:18;12.30;;;11.60;;
57339;SDS011;43174;50.930;18.170;2023-05-07T18:20:01;15.70;;;14.60;;
57339;SDS011;43174;50.930;18.170;2023-05-07T18:29:45;10.00;;;9.50;;
57339;SDS011;43174;50.930;18.170;2023-05-07T18:39:29;10.40;;;9.40;;
57339;SDS011;43174;50.930;18.170;2023-05-07T18:49:14;6.90;;;6.50;;
57339;SDS011;43174;50.930;18.170;2023-05-07T18:58:56;8.30;;;7.80;;
57339;SDS011;43174;50.930;18.170;2023-05-07T19:08:38;6.20;;;5.90;;
57339;SDS011;43174;50.930;18.170;2023-05-07T19:18:23;5.30;;;5.00;;
57339;SDS011;43174;50.930;18.170;2023-05-07T19:28:06;8.50;;;8.10;;
57339;SDS011;43174;50.930;18.170;2023-05-07T19:37:49;11.40;;;10.50;;
57339;SDS011;43174;50.930;18.170;2023-05-07T19:47:36;10.90;;;10.40;;
57339;SDS011;43174;50.930;18.170;2023-05-07T19:57:19;10.60;;;6.80;;
57339;SDS011;43174;50.930;18.170;2023-05-07T20:07:02;7.00;;;6.40;;
57339;SDS011;43174;50.930;18.170;2023-05-07T20:16:45;8.20;;;7.80;;
57339;SDS011;43174;50.930;18.170;2023-05-07T20:26:28;5.50;;;5.20;;
57339;SDS011;43174;50.930;18.170;2023-05-07T20:36:10;5.80;;;5.30;;
57339;SDS011;43174;50.930;18.170;2023-05-07T20:46:00;3.30;;;3.20;;
57339;SDS011;43174;50.930;18.170;2023-05-07T20:55:47;5.30;;;5.10;;
57339;SDS011;43174;50.930;18.170;2023-05-07T21:05:30;4.80;;;4.60;;
57339;SDS011;43174;50.930;18.170;2023-05-07T21:15:14;6.40;;;6.20;;
57339;SDS011;43174;50.930;18.170;2023-05-07T21:24:58;5.30;;;5.00;;
57339;SDS011;43174;50.930;18.170;2023-05-07T21:34:44;6.10;;;5.80;;
57339;SDS011;43174;50.930;18.170;2023-05-07T21:44:28;4.10;;;4.00;;
57339;SDS011;43174;50.930;18.170;2023-05-07T21:54:13;6.70;;;6.00;;
57339;SDS011;43174;50.930;18.170;2023-05-07T22:11:12;11.60;;;7.20;;
57339;SDS011;43174;50.930;18.170;2023-05-07T22:20:56;5.50;;;5.20;;
57339;SDS011;43174;50.930;18.170;2023-05-07T22:30:38;7.30;;;7.00;;
57339;SDS011;43174;50.930;18.170;2023-05-07T22:40:20;6.20;;;6.00;;
57339;SDS011;43174;50.930;18.170;2023-05-07T22:50:03;7.10;;;6.90;;
57339;SDS011;43174;50.930;18.170;2023-05-07T22:59:47;6.40;;;6.20;;
57339;SDS011;43174;50.930;18.170;2023-05-07T23:09:29;5.30;;;5.10;;
57339;SDS011;43174;50.930;18.170;2023-05-07T23:19:11;5.80;;;5.60;;
57339;SDS011;43174;50.930;18.170;2023-05-07T23:28:53;9.20;;;8.70;;
57339;SDS011;43174;50.930;18.170;2023-05-07T23:38:36;9.40;;;9.10;;
57339;SDS011;43174;50.930;18.170;2023-05-07T23:48:17;13.50;;;12.10;;
57339;SDS011;43174;50.930;18.170;2023-05-07T23:57:59;10.90;;;10.20;;
